createdAt,value
2023-03-15T00:01:38.528Z,6.80
2023-03-15T00:04:11.792Z,4.60
2023-03-15T00:06:44.003Z,6.10
2023-03-15T00:09:16.573Z,6.40
2023-03-15T00:11:48.872Z,5.70
2023-03-15T00:14:21.485Z,3.50
2023-03-15T00:16:54.894Z,3.50
2023-03-15T00:19:27.476Z,2.90
2023-03-15T00:21:59.715Z,5.50
2023-03-15T00:24:32.081Z,3.70
2023-03-15T00:27:06.100Z,3.10
2023-03-15T00:29:38.388Z,4.20
2023-03-15T00:32:10.942Z,4.60
2023-03-15T00:34:49.064Z,5.00
2023-03-15T00:37:21.660Z,8.50
2023-03-15T00:39:55.784Z,3.40
2023-03-15T00:42:28.282Z,8.90
2023-03-15T00:45:00.696Z,5.10
2023-03-15T00:47:32.993Z,2.60
2023-03-15T00:50:05.470Z,2.90
2023-03-15T00:52:38.911Z,2.70
2023-03-15T00:55:14.499Z,6.30
2023-03-15T01:00:24.407Z,4.60
2023-03-15T01:02:56.928Z,4.10
2023-03-15T01:05:29.574Z,4.30
2023-03-15T01:08:03.438Z,4.10
2023-03-15T01:10:37.680Z,3.50
2023-03-15T01:13:10.033Z,3.20
2023-03-15T01:15:46.456Z,3.60
2023-03-15T01:18:18.842Z,6.00
2023-03-15T01:20:51.138Z,3.40
2023-03-15T01:23:23.654Z,6.50
2023-03-15T01:25:56.130Z,6.00
2023-03-15T01:28:28.488Z,5.60
2023-03-15T01:31:00.899Z,5.60
2023-03-15T01:33:33.216Z,5.50
2023-03-15T01:36:08.023Z,8.50
2023-03-15T01:38:40.273Z,6.30
2023-03-15T01:41:13.165Z,8.40
2023-03-15T01:43:48.297Z,8.90
2023-03-15T01:46:29.750Z,8.90
2023-03-15T01:49:08.499Z,8.50
2023-03-15T01:51:47.416Z,7.40
2023-03-15T01:54:24.511Z,8.10
2023-03-15T01:57:01.432Z,7.70
2023-03-15T01:59:37.989Z,6.40
2023-03-15T02:02:15.072Z,10.00
2023-03-15T02:04:51.428Z,9.40
2023-03-15T02:07:26.242Z,7.40
2023-03-15T02:10:05.563Z,5.90
2023-03-15T02:12:40.178Z,6.10
2023-03-15T02:15:14.534Z,5.80
2023-03-15T02:17:48.999Z,6.90
2023-03-15T02:20:32.490Z,7.00
2023-03-15T02:23:07.590Z,7.90
2023-03-15T02:25:49.936Z,8.20
2023-03-15T02:28:23.209Z,6.60
2023-03-15T02:30:55.466Z,5.70
2023-03-15T02:33:30.165Z,8.90
2023-03-15T02:36:11.656Z,8.20
2023-03-15T02:38:43.955Z,10.60
2023-03-15T02:41:20.230Z,6.10
2023-03-15T02:43:57.170Z,6.40
2023-03-15T02:46:29.804Z,7.90
2023-03-15T02:49:03.917Z,9.70
2023-03-15T02:51:36.435Z,5.90
2023-03-15T02:54:08.927Z,7.90
2023-03-15T02:56:41.373Z,6.50
2023-03-15T02:59:13.999Z,8.00
2023-03-15T03:01:46.671Z,7.70
2023-03-15T03:04:19.034Z,13.30
2023-03-15T03:06:51.317Z,8.10
2023-03-15T03:09:23.931Z,6.60
2023-03-15T03:11:56.294Z,7.70
2023-03-15T03:14:28.618Z,9.70
2023-03-15T03:17:01.743Z,5.40
2023-03-15T03:19:34.114Z,6.70
2023-03-15T03:22:06.491Z,7.70
2023-03-15T03:24:38.780Z,8.40
2023-03-15T03:27:11.485Z,11.30
2023-03-15T03:29:44.306Z,6.90
2023-03-15T03:32:16.861Z,8.40
2023-03-15T03:34:49.596Z,7.30
2023-03-15T03:37:22.368Z,7.70
2023-03-15T03:39:54.905Z,5.40
2023-03-15T03:42:27.130Z,5.30
2023-03-15T03:44:59.487Z,10.40
2023-03-15T03:47:31.720Z,14.20
2023-03-15T03:50:04.070Z,10.70
2023-03-15T03:52:36.396Z,7.80
2023-03-15T03:55:09.877Z,13.30
2023-03-15T03:57:42.995Z,6.00
2023-03-15T04:00:18.025Z,7.60
2023-03-15T04:02:54.328Z,7.20
2023-03-15T04:05:27.351Z,7.80
2023-03-15T04:08:00.482Z,8.60
2023-03-15T04:10:35.183Z,6.10
2023-03-15T04:13:07.425Z,6.60
2023-03-15T04:15:39.791Z,6.40
2023-03-15T04:18:12.883Z,5.70
2023-03-15T04:20:47.022Z,6.80
2023-03-15T04:23:20.331Z,7.40
2023-03-15T04:25:55.351Z,6.60
2023-03-15T04:28:27.628Z,7.70
2023-03-15T04:31:04.442Z,6.80
2023-03-15T04:33:36.723Z,5.60
2023-03-15T04:36:09.960Z,7.50
2023-03-15T04:38:42.352Z,13.20
2023-03-15T04:41:15.035Z,8.40
2023-03-15T04:43:47.647Z,9.20
2023-03-15T04:46:19.956Z,10.00
2023-03-15T04:48:52.553Z,6.20
2023-03-15T04:51:25.024Z,5.50
2023-03-15T04:53:57.365Z,6.70
2023-03-15T04:56:30.301Z,12.30
2023-03-15T04:59:02.755Z,12.40
2023-03-15T05:01:35.327Z,8.40
2023-03-15T05:04:07.921Z,6.90
2023-03-15T05:06:40.119Z,7.20
2023-03-15T05:09:18.702Z,6.60
2023-03-15T05:11:51.168Z,6.10
2023-03-15T05:14:23.558Z,7.60
2023-03-15T05:16:58.677Z,8.00
2023-03-15T05:19:34.323Z,8.90
2023-03-15T05:22:07.024Z,7.40
2023-03-15T05:24:39.483Z,7.30
2023-03-15T05:27:13.744Z,8.10
2023-03-15T05:29:46.591Z,6.90
2023-03-15T05:32:19.039Z,11.00
2023-03-15T05:34:51.239Z,12.70
2023-03-15T05:37:24.229Z,7.80
2023-03-15T05:39:57.045Z,14.70
2023-03-15T05:42:29.574Z,9.60
2023-03-15T05:45:02.075Z,10.00
2023-03-15T05:47:34.490Z,9.30
2023-03-15T05:50:08.431Z,7.50
2023-03-15T05:52:40.721Z,8.70
2023-03-15T05:55:13.306Z,5.80
2023-03-15T05:57:45.640Z,8.30
2023-03-15T06:00:20.148Z,9.30
2023-03-15T06:02:52.772Z,15.90
2023-03-15T06:05:25.097Z,9.10
2023-03-15T06:07:57.545Z,8.10
2023-03-15T06:10:30.000Z,7.50
2023-03-15T06:13:02.441Z,7.60
2023-03-15T06:15:34.821Z,11.70
2023-03-15T06:18:08.241Z,9.90
2023-03-15T06:20:41.032Z,7.60
2023-03-15T06:23:13.458Z,9.60
2023-03-15T06:25:46.986Z,11.30
2023-03-15T06:28:19.257Z,5.40
2023-03-15T06:30:51.729Z,10.40
2023-03-15T06:33:24.940Z,10.20
2023-03-15T06:35:57.237Z,10.00
2023-03-15T06:38:30.282Z,11.60
2023-03-15T06:41:02.682Z,9.90
2023-03-15T06:43:35.071Z,6.90
2023-03-15T06:46:07.736Z,11.80
2023-03-15T06:48:40.127Z,9.70
2023-03-15T06:51:12.414Z,6.40
2023-03-15T06:53:47.762Z,9.70
2023-03-15T06:56:20.094Z,10.70
2023-03-15T06:58:52.433Z,7.70
2023-03-15T07:01:24.766Z,9.20
2023-03-15T07:03:57.628Z,6.50
2023-03-15T07:06:30.152Z,12.50
2023-03-15T07:09:02.966Z,9.10
2023-03-15T07:11:35.567Z,15.10
2023-03-15T07:14:07.997Z,13.40
2023-03-15T07:16:40.801Z,13.60
2023-03-15T07:19:13.112Z,7.70
2023-03-15T07:21:45.428Z,10.40
2023-03-15T07:24:17.789Z,11.10
2023-03-15T07:26:55.002Z,6.00
2023-03-15T07:29:28.517Z,6.50
2023-03-15T07:32:01.592Z,5.90
2023-03-15T07:34:33.968Z,7.10
2023-03-15T07:37:07.733Z,17.70
2023-03-15T07:39:40.139Z,19.70
2023-03-15T07:42:13.233Z,26.00
2023-03-15T07:44:45.527Z,9.50
2023-03-15T07:47:17.881Z,8.40
2023-03-15T07:49:50.305Z,7.80
2023-03-15T07:52:23.372Z,7.00
2023-03-15T07:54:55.895Z,5.90
2023-03-15T07:57:29.033Z,6.70
2023-03-15T08:00:01.581Z,6.90
2023-03-15T08:02:34.011Z,6.70
2023-03-15T08:05:07.138Z,13.30
2023-03-15T08:07:39.792Z,12.20
2023-03-15T08:10:13.877Z,12.40
2023-03-15T08:12:46.453Z,8.80
2023-03-15T08:15:19.424Z,7.80
2023-03-15T08:17:51.867Z,8.10
2023-03-15T08:20:24.751Z,7.20
2023-03-15T08:22:57.154Z,10.50
2023-03-15T08:25:29.948Z,5.00
2023-03-15T08:28:02.285Z,6.80
2023-03-15T08:30:34.680Z,7.00
2023-03-15T08:33:07.716Z,13.50
2023-03-15T08:35:41.507Z,9.30
2023-03-15T08:38:14.709Z,11.40
2023-03-15T08:40:48.010Z,7.30
2023-03-15T08:43:20.395Z,7.60
2023-03-15T08:46:01.845Z,11.80
2023-03-15T08:48:34.522Z,6.90
2023-03-15T08:51:09.092Z,7.60
2023-03-15T08:53:41.604Z,7.50
2023-03-15T08:56:14.100Z,11.10
2023-03-15T08:58:46.961Z,5.50
2023-03-15T09:01:19.447Z,6.50
2023-03-15T09:03:52.072Z,9.30
2023-03-15T09:06:24.624Z,14.10
2023-03-15T09:08:57.023Z,10.70
2023-03-15T09:11:29.322Z,5.90
2023-03-15T09:14:01.794Z,6.30
2023-03-15T09:16:34.185Z,8.00
2023-03-15T09:19:06.541Z,10.40
2023-03-15T09:21:38.913Z,5.00
2023-03-15T09:24:11.268Z,5.00
2023-03-15T09:26:43.941Z,8.60
2023-03-15T09:29:16.256Z,10.00
2023-03-15T09:31:48.685Z,5.80
2023-03-15T09:34:21.897Z,5.70
2023-03-15T09:36:54.680Z,7.30
2023-03-15T09:39:27.040Z,9.10
2023-03-15T09:42:04.183Z,5.80
2023-03-15T09:44:46.662Z,13.50
2023-03-15T09:47:37.965Z,9.10
2023-03-15T09:50:20.610Z,15.50
2023-03-15T09:52:57.377Z,7.70
2023-03-15T09:55:30.836Z,9.90
2023-03-15T09:58:05.461Z,7.20
2023-03-15T10:00:42.841Z,5.30
2023-03-15T10:03:22.919Z,8.60
2023-03-15T10:06:00.348Z,5.90
2023-03-15T10:08:34.556Z,9.00
2023-03-15T10:11:16.052Z,6.40
2023-03-15T10:13:59.744Z,8.70
2023-03-15T10:16:41.071Z,11.30
2023-03-15T10:19:27.035Z,16.90
2023-03-15T10:22:05.050Z,6.20
2023-03-15T10:24:42.434Z,6.70
2023-03-15T10:27:23.951Z,3.40
2023-03-15T10:30:00.008Z,6.20
2023-03-15T10:32:46.908Z,6.40
2023-03-15T10:35:21.656Z,3.60
2023-03-15T10:37:53.960Z,7.70
2023-03-15T10:40:46.845Z,5.80
2023-03-15T10:43:23.797Z,26.00
2023-03-15T10:46:03.646Z,9.00
2023-03-15T10:48:38.211Z,6.90
2023-03-15T10:51:21.057Z,3.90
2023-03-15T10:54:00.407Z,4.90
2023-03-15T10:56:36.916Z,3.90
2023-03-15T10:59:19.522Z,4.60
2023-03-15T11:01:55.210Z,15.20
2023-03-15T11:04:28.791Z,17.50
2023-03-15T11:07:07.735Z,10.80
2023-03-15T11:09:45.774Z,5.70
2023-03-15T11:12:25.684Z,5.60
2023-03-15T11:15:01.520Z,6.40
2023-03-15T11:17:36.836Z,4.30
2023-03-15T11:20:30.864Z,11.00
2023-03-15T11:23:07.750Z,4.70
2023-03-15T11:25:40.203Z,6.30
2023-03-15T11:28:21.058Z,4.90
2023-03-15T11:30:54.165Z,5.10
2023-03-15T11:33:42.884Z,4.30
2023-03-15T11:36:22.492Z,9.80
2023-03-15T11:38:55.648Z,3.80
2023-03-15T11:41:36.634Z,6.90
2023-03-15T11:44:19.503Z,7.20
2023-03-15T11:46:57.097Z,4.20
2023-03-15T11:49:36.706Z,8.60
2023-03-15T11:52:10.170Z,9.70
2023-03-15T11:54:47.252Z,5.40
2023-03-15T11:57:44.303Z,6.40
2023-03-15T12:00:45.896Z,7.60
2023-03-15T12:03:39.485Z,8.20
2023-03-15T12:06:33.517Z,4.60
2023-03-15T12:09:47.201Z,5.70
2023-03-15T12:12:39.740Z,6.80
2023-03-15T12:15:49.973Z,4.70
2023-03-15T12:18:40.252Z,4.60
2023-03-15T12:21:19.558Z,10.50
2023-03-15T12:24:01.894Z,6.70
2023-03-15T12:26:44.019Z,10.30
2023-03-15T12:29:21.706Z,5.90
2023-03-15T12:31:59.964Z,4.00
2023-03-15T12:34:50.988Z,4.00
2023-03-15T12:37:26.868Z,4.40
2023-03-15T12:43:03.305Z,6.30
2023-03-15T12:45:46.724Z,7.40
2023-03-15T12:48:27.339Z,3.70
2023-03-15T12:51:02.351Z,5.40
2023-03-15T12:53:50.702Z,5.70
2023-03-15T12:56:50.745Z,7.50
2023-03-15T12:59:38.210Z,9.10
2023-03-15T13:02:35.893Z,6.90
2023-03-15T13:05:21.413Z,4.40
2023-03-15T13:07:59.224Z,4.60
2023-03-15T13:11:00.516Z,4.50
2023-03-15T13:13:50.494Z,2.50
2023-03-15T13:16:35.768Z,5.20
2023-03-15T13:19:18.870Z,4.70
2023-03-15T13:22:11.107Z,9.90
2023-03-15T13:24:53.723Z,9.30
2023-03-15T13:27:37.571Z,18.20
2023-03-15T13:30:29.815Z,7.30
2023-03-15T13:33:21.163Z,3.80
2023-03-15T13:36:00.509Z,6.10
2023-03-15T13:38:35.665Z,4.30
2023-03-15T13:41:18.281Z,5.50
2023-03-15T13:43:52.211Z,6.60
2023-03-15T13:46:27.402Z,6.00
2023-03-15T13:49:01.840Z,6.80
2023-03-15T13:51:37.016Z,4.30
2023-03-15T13:54:13.366Z,5.60
2023-03-15T13:56:58.025Z,8.70
2023-03-15T13:59:38.166Z,4.00
2023-03-15T14:02:17.816Z,6.70
2023-03-15T14:04:57.853Z,6.40
2023-03-15T14:07:36.492Z,5.60
2023-03-15T14:10:29.078Z,4.30
2023-03-15T14:13:17.928Z,3.70
2023-03-15T14:15:51.275Z,4.40
2023-03-15T14:18:28.017Z,8.30
2023-03-15T14:21:05.092Z,3.30
2023-03-15T14:23:41.311Z,7.30
2023-03-15T14:26:22.135Z,6.10
2023-03-15T14:28:57.410Z,7.20
2023-03-15T14:31:34.751Z,12.10
2023-03-15T14:34:19.711Z,3.90
2023-03-15T14:36:54.334Z,4.70
2023-03-15T14:39:29.977Z,7.10
2023-03-15T14:42:02.525Z,9.50
2023-03-15T14:44:34.999Z,5.00
2023-03-15T14:47:13.674Z,3.80
2023-03-15T14:49:45.924Z,25.70
2023-03-15T14:52:18.313Z,5.00
2023-03-15T14:54:52.090Z,3.50
2023-03-15T14:57:24.382Z,5.70
2023-03-15T14:59:56.767Z,6.90
2023-03-15T15:02:29.219Z,4.00
2023-03-15T15:05:04.901Z,5.70
2023-03-15T15:07:37.530Z,7.30
2023-03-15T15:10:11.610Z,4.50
2023-03-15T15:12:45.210Z,5.10
2023-03-15T15:15:23.083Z,7.20
2023-03-15T15:17:55.496Z,3.70
2023-03-15T15:20:28.166Z,10.00
2023-03-15T15:23:01.493Z,4.30
2023-03-15T15:25:35.716Z,5.10
2023-03-15T15:28:08.160Z,4.20
2023-03-15T15:30:40.844Z,2.90
2023-03-15T15:33:13.133Z,4.00
2023-03-15T15:35:46.103Z,1.90
2023-03-15T15:38:18.585Z,5.60
2023-03-15T15:40:50.975Z,3.10
2023-03-15T15:43:23.401Z,6.20
2023-03-15T15:45:55.790Z,11.60
2023-03-15T15:48:28.252Z,2.20
2023-03-15T15:51:00.777Z,1.80
2023-03-15T15:53:34.886Z,2.90
2023-03-15T15:56:12.054Z,4.50
2023-03-15T15:58:45.962Z,3.50
2023-03-15T16:01:18.868Z,4.20
2023-03-15T16:03:51.297Z,3.50
2023-03-15T16:06:24.398Z,2.30
2023-03-15T16:08:57.509Z,5.60
2023-03-15T16:11:30.673Z,2.90
2023-03-15T16:14:02.938Z,4.60
2023-03-15T16:16:35.261Z,6.70
2023-03-15T16:19:07.777Z,6.20
2023-03-15T16:21:43.395Z,3.80
2023-03-15T16:24:19.170Z,7.20
2023-03-15T16:29:27.713Z,8.30
2023-03-15T16:32:13.930Z,10.70
2023-03-15T16:34:49.977Z,6.20
2023-03-15T16:37:25.105Z,8.10
2023-03-15T16:39:57.708Z,6.20
2023-03-15T16:42:30.164Z,7.10
2023-03-15T16:45:02.899Z,9.00
2023-03-15T16:47:35.534Z,8.70
2023-03-15T16:50:08.841Z,9.90
2023-03-15T16:52:43.272Z,9.60
2023-03-15T16:55:17.211Z,5.20
2023-03-15T16:57:49.832Z,8.30
2023-03-15T17:00:24.817Z,7.50
2023-03-15T17:03:00.085Z,6.00
2023-03-15T17:05:35.099Z,9.10
2023-03-15T17:08:07.637Z,4.90
2023-03-15T17:10:41.481Z,10.60
2023-03-15T17:13:17.241Z,8.90
2023-03-15T17:15:49.597Z,6.30
2023-03-15T17:18:28.502Z,7.80
2023-03-15T17:21:01.051Z,9.70
2023-03-15T17:23:33.863Z,8.10
2023-03-15T17:26:07.316Z,5.90
2023-03-15T17:28:40.450Z,7.40
2023-03-15T17:31:25.143Z,7.60
2023-03-15T17:33:58.202Z,10.60
2023-03-15T17:36:34.337Z,6.70
2023-03-15T17:39:07.992Z,8.80
2023-03-15T17:41:43.992Z,7.50
2023-03-15T17:44:16.513Z,17.90
2023-03-15T17:46:49.108Z,9.60
2023-03-15T17:49:21.491Z,10.90
2023-03-15T17:51:53.962Z,11.20
2023-03-15T17:54:26.535Z,6.90
2023-03-15T17:56:59.772Z,12.30
2023-03-15T17:59:33.202Z,14.00
2023-03-15T18:02:07.732Z,16.80
2023-03-15T18:04:40.230Z,14.50
2023-03-15T18:07:13.613Z,10.00
2023-03-15T18:09:46.100Z,6.50
2023-03-15T18:12:19.373Z,12.70
2023-03-15T18:14:51.884Z,13.40
2023-03-15T18:17:25.633Z,11.10
2023-03-15T18:19:58.193Z,10.90
2023-03-15T18:22:30.859Z,16.40
2023-03-15T18:25:03.813Z,12.00
2023-03-15T18:27:36.704Z,19.20
2023-03-15T18:30:11.846Z,12.50
2023-03-15T18:32:44.391Z,42.50
2023-03-15T18:35:21.031Z,15.40
2023-03-15T18:37:56.207Z,16.10
2023-03-15T18:40:31.405Z,10.30
2023-03-15T18:43:05.573Z,11.80
2023-03-15T18:45:38.592Z,16.40
2023-03-15T18:48:11.153Z,12.40
2023-03-15T18:50:43.678Z,15.20
2023-03-15T18:53:15.958Z,22.20
2023-03-15T18:55:48.495Z,11.60
2023-03-15T18:58:22.381Z,17.80
2023-03-15T19:00:54.853Z,17.40
2023-03-15T19:03:27.270Z,19.40
2023-03-15T19:06:06.408Z,13.00
2023-03-15T19:08:39.404Z,10.60
2023-03-15T19:11:12.880Z,16.10
2023-03-15T19:13:50.907Z,13.50
2023-03-15T19:16:24.045Z,17.00
2023-03-15T19:18:56.438Z,12.90
2023-03-15T19:21:29.214Z,14.60
2023-03-15T19:24:01.905Z,18.50
2023-03-15T19:26:34.340Z,12.40
2023-03-15T19:29:06.933Z,13.50
2023-03-15T19:31:40.052Z,11.80
2023-03-15T19:34:12.473Z,14.10
2023-03-15T19:36:44.809Z,13.70
2023-03-15T19:39:18.434Z,15.30
2023-03-15T19:41:50.629Z,17.90
2023-03-15T19:44:23.478Z,19.20
2023-03-15T19:46:56.104Z,16.80
2023-03-15T19:49:31.569Z,13.10
2023-03-15T19:52:04.383Z,17.00
2023-03-15T19:54:37.308Z,14.00
2023-03-15T19:57:09.770Z,18.10
2023-03-15T19:59:42.117Z,16.60
2023-03-15T20:02:15.312Z,19.50
2023-03-15T20:04:47.954Z,14.80
2023-03-15T20:07:20.534Z,15.00
2023-03-15T20:09:53.900Z,15.20
2023-03-15T20:12:26.391Z,17.80
2023-03-15T20:14:58.643Z,17.70
2023-03-15T20:17:31.041Z,15.20
2023-03-15T20:20:05.941Z,14.70
2023-03-15T20:22:40.957Z,18.30
2023-03-15T20:25:14.894Z,14.60
2023-03-15T20:27:47.369Z,22.40
2023-03-15T20:30:20.599Z,23.60
2023-03-15T20:32:53.715Z,18.80
2023-03-15T20:35:26.449Z,21.60
2023-03-15T20:38:06.639Z,20.50
2023-03-15T20:40:40.601Z,22.90
2023-03-15T20:43:12.949Z,25.10
2023-03-15T20:45:45.169Z,17.00
2023-03-15T20:48:17.442Z,18.60
2023-03-15T20:50:52.168Z,23.20
2023-03-15T20:53:24.811Z,21.70
2023-03-15T20:55:57.170Z,18.30
2023-03-15T20:58:29.801Z,24.50
2023-03-15T21:01:10.795Z,19.10
2023-03-15T21:03:43.341Z,21.40
2023-03-15T21:06:16.145Z,22.70
2023-03-15T21:08:48.604Z,27.90
2023-03-15T21:11:20.994Z,25.40
2023-03-15T21:13:53.938Z,23.20
2023-03-15T21:16:26.545Z,18.70
2023-03-15T21:18:59.041Z,21.90
2023-03-15T21:21:34.734Z,24.00
2023-03-15T21:24:07.367Z,26.00
2023-03-15T21:26:44.085Z,22.80
2023-03-15T21:29:16.530Z,28.60
2023-03-15T21:31:48.868Z,25.00
2023-03-15T21:34:21.186Z,29.50
2023-03-15T21:36:53.449Z,24.70
2023-03-15T21:39:25.913Z,27.60
2023-03-15T21:42:01.245Z,26.70
2023-03-15T21:44:34.910Z,27.40
2023-03-15T21:47:07.362Z,32.30
2023-03-15T21:49:40.071Z,24.50
2023-03-15T21:52:12.439Z,26.40
2023-03-15T21:54:45.820Z,28.30
2023-03-15T21:57:18.164Z,34.00
2023-03-15T21:59:50.868Z,30.00
2023-03-15T22:02:23.199Z,25.20
2023-03-15T22:04:56.115Z,32.70
2023-03-15T22:07:28.544Z,23.30
2023-03-15T22:10:00.916Z,25.30
2023-03-15T22:12:33.384Z,27.60
2023-03-15T22:15:06.537Z,26.50
2023-03-15T22:17:39.144Z,32.60
2023-03-15T22:20:16.689Z,28.00
2023-03-15T22:22:50.286Z,30.20
2023-03-15T22:25:23.023Z,26.80
2023-03-15T22:27:55.370Z,27.50
2023-03-15T22:30:28.110Z,25.30
2023-03-15T22:33:01.088Z,31.40
2023-03-15T22:35:33.638Z,26.50
2023-03-15T22:38:10.430Z,26.30
2023-03-15T22:40:43.493Z,29.90
2023-03-15T22:43:16.006Z,31.50
2023-03-15T22:45:48.367Z,29.30
2023-03-15T22:48:21.129Z,32.30
2023-03-15T22:51:00.965Z,25.90
2023-03-15T22:53:34.298Z,26.10
2023-03-15T22:56:07.092Z,29.20
2023-03-15T22:58:39.664Z,26.60
2023-03-15T23:01:12.075Z,36.90
2023-03-15T23:03:44.562Z,29.20
2023-03-15T23:06:17.237Z,27.30
2023-03-15T23:08:49.598Z,29.60
2023-03-15T23:11:21.935Z,31.40
2023-03-15T23:13:54.380Z,31.20
2023-03-15T23:16:26.798Z,31.90
2023-03-15T23:18:59.038Z,32.70
2023-03-15T23:21:31.951Z,30.50
2023-03-15T23:24:04.205Z,28.10
2023-03-15T23:26:37.705Z,27.60
2023-03-15T23:29:11.645Z,30.00
2023-03-15T23:31:44.889Z,31.40
2023-03-15T23:34:17.506Z,28.50
2023-03-15T23:36:49.796Z,29.10
2023-03-15T23:39:22.647Z,29.70
2023-03-15T23:41:58.026Z,26.80
2023-03-15T23:44:30.467Z,28.00
2023-03-15T23:47:05.658Z,25.60
2023-03-15T23:49:37.990Z,29.60
2023-03-15T23:52:11.220Z,31.00
2023-03-15T23:54:44.080Z,28.30
2023-03-15T23:57:17.702Z,25.50
2023-03-15T23:59:50.258Z,26.30
